Disclaimer

Please do not use the information listed here in-flight or in-navigation, as they are not provided to us by the airports but are provided by volunteers, so they might be outdated.

Search


Regions


Airport information page

Radio informations:
Tower (TWR) - 120.3 MHz
RDO - 5790 MHz
Approach (APP) - 120.3 MHz

Airport informations:
Latitude: 31° 11' 02.05" N
Longitude: 029° 56' 56.00" E
Elevation: -6 feet - -2 meters
Operating hours: 24 hour operations
Operating agency: Civil government, landing fees and diplomatic clearance may be required
Timezone: UTC+2(+3DT) - Dates notified by NOTAM
Fuel: Jet A1, without icing nhibitor.

Unknown fuel type or whether there is any fuel.

Runway information:
04/22 - 7221 x 148 feet< - >2201 x 45 meters
18/36 - 5909 x 98 feet< - >1801 x 30 meters

Recent METARs:
HEAX 130400Z 36007KT 9999 SCT020 21/13 Q1017 NOSIG
HEAX 130400Z 36007KT 9999 SCT020 21/13 Q1017 NOSIG
HEAX 130400Z 36007KT 9999 SCT020 21/13 Q1017 NOSIG

Airport on the map: